Time;durP1;ratioP1;P1;durP2;ratioP2;P2;SDS_P1;SDS_P2;PMS_P1;PMS_P2;Temp;Humidity;BMP_temperature;BMP_pressure;BME280_temperature;BME280_humidity;BME280_pressure;Samples;Min_cycle;Max_cycle;Signal;HPM_P1;HPM_P2
2022/05/16 00:02:24;;;;;;;1.70;1.60;;;;;;;17.15;98.37;96648.22;5057296;28;20642;-51
2022/05/16 00:04:50;;;;;;;3.78;1.90;;;;;;;17.15;98.03;96650.88;5058035;28;20214;-51
2022/05/16 00:07:27;;;;;;;1.92;1.80;;;;;;;17.16;97.40;96650.72;5055468;28;20211;-51
2022/05/16 00:09:54;;;;;;;6.78;2.00;;;;;;;17.01;100.00;96651.69;5047834;28;20508;-50
2022/05/16 00:12:22;;;;;;;2.88;2.38;;;;;;;17.03;100.00;96665.72;5049361;28;20647;-50
2022/05/16 00:14:49;;;;;;;3.42;2.20;;;;;;;16.99;100.00;96667.09;5046982;28;20231;-50
2022/05/16 00:17:17;;;;;;;2.50;2.33;;;;;;;16.97;100.00;96667.25;5054125;28;20211;-50
2022/05/16 00:19:44;;;;;;;3.22;2.08;;;;;;;16.98;100.00;96665.44;5057206;28;20249;-51
2022/05/16 00:22:11;;;;;;;2.28;2.08;;;;;;;17.00;100.00;96664.25;5055874;28;20253;-50
2022/05/16 00:24:41;;;;;;;1.90;1.80;;;;;;;16.97;100.00;96653.09;5056906;28;20239;-50
2022/05/16 00:27:10;;;;;;;2.38;2.17;;;;;;;16.99;100.00;96657.25;5056805;28;20203;-51
2022/05/16 00:29:38;;;;;;;2.00;1.90;;;;;;;17.01;100.00;96651.69;5057159;28;20623;-50
2022/05/16 00:32:06;;;;;;;2.05;1.85;;;;;;;17.00;100.00;96660.75;5056975;28;20628;-50
2022/05/16 00:34:32;;;;;;;2.38;2.17;;;;;;;16.97;100.00;96653.09;5056684;28;20245;-51
2022/05/16 00:37:00;;;;;;;2.20;2.00;;;;;;;16.91;100.00;96647.47;5057079;28;20207;-50
2022/05/16 00:39:27;;;;;;;2.42;2.17;;;;;;;16.87;99.68;96654.19;5056884;28;20211;-50
2022/05/16 00:41:55;;;;;;;2.40;2.20;;;;;;;16.89;99.51;96652.19;5056882;28;20218;-51
2022/05/16 00:44:24;;;;;;;4.60;2.70;;;;;;;16.76;100.00;96649.28;5056889;28;20222;-51
2022/05/16 00:46:52;;;;;;;2.45;2.20;;;;;;;16.69;100.00;96648.34;5056648;28;20704;-50
2022/05/16 00:49:21;;;;;;;2.65;2.45;;;;;;;16.55;100.00;96654.44;5056288;28;20207;-50
2022/05/16 00:51:54;;;;;;;2.65;2.30;;;;;;;16.49;100.00;96646.31;5056984;28;20203;-51
2022/05/16 00:54:22;;;;;;;2.88;2.67;;;;;;;16.49;100.00;96651.66;5043212;28;20215;-51
2022/05/16 00:56:50;;;;;;;4.80;2.70;;;;;;;16.48;100.00;96652.66;5056730;28;20268;-50
2022/05/16 00:59:18;;;;;;;4.30;2.38;;;;;;;16.52;100.00;96653.97;5055382;28;20218;-52
2022/05/16 01:07:14;;;;;;;3.08;2.70;;;;;;;16.47;100.00;96638.50;5056348;28;20222;-50
2022/05/16 01:09:43;;;;;;;2.70;2.50;;;;;;;16.41;100.00;96649.88;5056237;28;20210;-51
2022/05/16 01:12:10;;;;;;;2.92;2.40;;;;;;;16.36;100.00;96652.28;5069097;28;20183;-50
2022/05/16 01:14:50;;;;;;;4.20;2.30;;;;;;;16.30;100.00;96648.47;5094039;28;20214;-50
2022/05/16 01:17:17;;;;;;;3.42;2.63;;;;;;;16.30;100.00;96648.47;5079391;28;20210;-51
2022/05/16 01:19:46;;;;;;;3.70;3.00;;;;;;;16.29;100.00;96640.66;5075421;28;20203;-51
2022/05/16 01:22:23;;;;;;;3.20;2.87;;;;;;;16.27;100.00;96642.66;5058396;28;20218;-51
2022/05/16 01:24:50;;;;;;;3.70;2.63;;;;;;;16.28;100.00;96649.66;5048123;28;20326;-50
2022/05/16 01:27:17;;;;;;;4.78;2.40;;;;;;;16.33;100.00;96647.28;5064693;28;20493;-51
2022/05/16 01:29:43;;;;;;;2.38;2.15;;;;;;;16.22;100.00;96645.03;5056087;28;20218;-50
2022/05/16 01:32:11;;;;;;;3.37;2.50;;;;;;;16.16;100.00;96645.72;5056418;28;20203;-51
2022/05/16 01:34:39;;;;;;;2.40;2.20;;;;;;;16.16;100.00;96648.41;5055732;28;20226;-50
2022/05/16 01:37:06;;;;;;;3.47;2.33;;;;;;;16.06;100.00;96647.81;5056118;28;20297;-50
2022/05/16 01:39:34;;;;;;;2.88;2.63;;;;;;;16.01;100.00;96644.84;5041667;28;20207;-50
2022/05/16 01:42:01;;;;;;;2.63;2.20;;;;;;;15.94;100.00;96648.19;5055964;28;20264;-50
2022/05/16 01:44:29;;;;;;;2.50;2.33;;;;;;;16.03;100.00;96650.81;5055505;28;20199;-51
2022/05/16 01:46:57;;;;;;;3.55;2.30;;;;;;;16.00;100.00;96652.03;5062459;28;20206;-50
2022/05/16 01:49:27;;;;;;;4.38;2.20;;;;;;;15.93;100.00;96645.72;5073729;28;20237;-51
2022/05/16 01:51:56;;;;;;;3.33;2.50;;;;;;;15.90;100.00;96646.91;5054830;28;20217;-50
2022/05/16 01:54:24;;;;;;;2.78;2.58;;;;;;;15.91;100.00;96642.38;5055582;28;20227;-50
2022/05/16 01:56:54;;;;;;;3.65;3.03;;;;;;;15.83;100.00;96640.63;5046126;28;20211;-50
2022/05/16 01:59:20;;;;;;;6.78;2.35;;;;;;;15.87;100.00;96644.56;5052519;28;20635;-52
2022/05/16 02:01:48;;;;;;;2.95;2.00;;;;;;;15.84;100.00;96642.25;5055554;28;20203;-49
2022/05/16 02:04:17;;;;;;;2.50;2.30;;;;;;;15.83;100.00;96639.78;5055409;28;20250;-50
2022/05/16 02:06:43;;;;;;;2.20;2.00;;;;;;;15.86;100.00;96640.28;5055461;28;20281;-50
2022/05/16 02:09:10;;;;;;;2.53;2.20;;;;;;;15.83;100.00;96632.63;5055464;28;20222;-50
2022/05/16 02:11:36;;;;;;;3.08;2.47;;;;;;;15.85;100.00;96635.94;5050320;28;20598;-50
2022/05/16 02:14:04;;;;;;;2.83;2.20;;;;;;;15.87;100.00;96636.56;5051904;28;20234;-50
2022/05/16 02:16:31;;;;;;;2.50;2.30;;;;;;;15.90;100.00;96640.75;5055823;28;20242;-50
2022/05/16 02:18:58;;;;;;;3.45;2.75;;;;;;;15.86;100.00;96634.94;5055695;28;20222;-50
2022/05/16 02:26:54;;;;;;;2.35;2.20;;;;;;;15.84;100.00;96636.09;5055282;28;20658;-51
2022/05/16 02:29:22;;;;;;;3.75;2.42;;;;;;;15.80;100.00;96643.63;5055384;28;20211;-51
2022/05/16 02:31:49;;;;;;;4.07;2.30;;;;;;;15.79;100.00;96638.47;5055407;28;20214;-50
2022/05/16 02:34:17;;;;;;;2.90;2.40;;;;;;;15.79;100.00;96639.31;5055633;28;20269;-51
2022/05/16 02:36:43;;;;;;;2.42;2.22;;;;;;;15.82;100.00;96641.63;5055106;28;20209;-51
2022/05/16 02:39:10;;;;;;;4.47;2.43;;;;;;;15.83;100.00;96645.97;5055574;28;20248;-50
2022/05/16 02:41:40;;;;;;;3.17;2.28;;;;;;;15.74;100.00;96641.66;5056202;28;20639;-51
2022/05/16 02:44:06;;;;;;;3.97;2.60;;;;;;;15.74;100.00;96647.00;5043648;28;20231;-51
2022/05/16 02:46:37;;;;;;;2.90;2.60;;;;;;;15.67;100.00;96639.88;5053998;28;20210;-51
2022/05/16 02:49:03;;;;;;;3.50;2.50;;;;;;;15.72;100.00;96654.34;5055711;28;20246;-51
2022/05/16 02:51:30;;;;;;;3.13;2.25;;;;;;;15.67;100.00;96646.03;5056053;28;20218;-51
2022/05/16 02:53:57;;;;;;;2.70;2.50;;;;;;;15.58;100.00;96654.25;5056361;28;20215;-51
2022/05/16 02:56:24;;;;;;;3.63;2.40;;;;;;;15.55;100.00;96652.78;5057561;28;20211;-50
2022/05/16 02:58:50;;;;;;;3.03;2.40;;;;;;;15.53;100.00;96656.59;5059179;28;20293;-51
2022/05/16 03:01:17;;;;;;;2.50;2.30;;;;;;;15.53;100.00;96656.59;5070184;28;20191;-51
2022/05/16 03:03:46;;;;;;;3.88;2.50;;;;;;;15.50;100.00;96657.78;5075922;28;20211;-51
2022/05/16 03:06:13;;;;;;;2.25;2.15;;;;;;;15.44;100.00;96655.78;5075905;28;20213;-51
2022/05/16 03:08:41;;;;;;;3.93;2.40;;;;;;;15.46;100.00;96659.09;5076084;28;20215;-51
2022/05/16 03:11:08;;;;;;;2.40;2.20;;;;;;;15.36;100.00;96663.78;5075362;28;20203;-50
2022/05/16 03:13:36;;;;;;;2.23;2.13;;;;;;;15.31;100.00;96666.13;5053345;28;20207;-50
2022/05/16 03:16:06;;;;;;;2.40;2.30;;;;;;;15.31;100.00;96671.47;5075458;28;20233;-50
2022/05/16 03:18:33;;;;;;;3.07;2.07;;;;;;;15.24;100.00;96671.31;5075309;28;20198;-51
2022/05/16 03:21:02;;;;;;;4.50;2.40;;;;;;;15.26;100.00;96671.16;5074843;28;20215;-50
2022/05/16 03:23:28;;;;;;;4.47;2.40;;;;;;;15.21;100.00;96676.16;5055318;28;20203;-52
2022/05/16 03:25:55;;;;;;;2.90;2.07;;;;;;;15.27;100.00;96681.63;5043290;28;20215;-50
2022/05/16 03:28:21;;;;;;;5.90;2.20;;;;;;;15.22;100.00;96686.66;5059703;28;20226;-50
2022/05/16 03:30:48;;;;;;;1.73;1.63;;;;;;;15.23;100.00;96682.16;5077565;28;20187;-50
2022/05/16 03:33:15;;;;;;;2.80;2.17;;;;;;;15.21;100.00;96677.00;5078849;28;20214;-51
2022/05/16 03:35:42;;;;;;;1.93;1.83;;;;;;;15.18;100.00;96677.34;5070268;28;20718;-50
2022/05/16 03:40:41;;;;;;;2.10;2.00;;;;;;;15.15;100.00;96684.84;5059255;28;20211;-50
2022/05/16 03:40:59;;;;;;;2.23;2.07;;;;;;;15.07;100.00;96684.84;5057314;28;20199;-50
2022/05/16 03:43:26;;;;;;;2.23;2.03;;;;;;;15.07;100.00;96692.84;5057931;28;20535;-50
2022/05/16 03:45:52;;;;;;;2.37;2.00;;;;;;;15.10;100.00;96692.50;5057985;28;20211;-51
2022/05/16 03:48:19;;;;;;;2.40;2.30;;;;;;;15.05;100.00;96694.84;5058062;28;20543;-50
2022/05/16 03:50:45;;;;;;;3.05;1.98;;;;;;;15.08;100.00;96699.84;5057327;28;20207;-51
2022/05/16 03:53:15;;;;;;;3.47;2.30;;;;;;;15.11;100.00;96705.66;5058019;28;20207;-50
2022/05/16 03:55:41;;;;;;;2.50;2.30;;;;;;;15.11;100.00;96707.50;5057574;28;20237;-50
2022/05/16 03:58:08;;;;;;;3.33;2.47;;;;;;;15.11;100.00;96705.66;5057395;28;20278;-50
2022/05/16 04:00:38;;;;;;;2.67;2.47;;;;;;;15.14;100.00;96700.00;5057728;28;20222;-49
2022/05/16 04:03:04;;;;;;;2.40;2.20;;;;;;;15.18;100.00;96700.47;5057924;28;20203;-50
2022/05/16 04:05:33;;;;;;;2.37;2.27;;;;;;;15.22;100.00;96705.31;5057465;28;20199;-51
2022/05/16 04:07:59;;;;;;;2.57;2.37;;;;;;;15.23;100.00;96700.81;5057305;28;20669;-50
2022/05/16 04:10:29;;;;;;;4.13;2.57;;;;;;;15.23;100.00;96706.94;5057557;28;20214;-50
2022/05/16 04:13:01;;;;;;;5.83;5.23;;;;;;;15.23;100.00;96716.81;5050130;28;20214;-51
2022/05/16 04:15:30;;;;;;;3.73;3.43;;;;;;;15.24;100.00;96718.44;5057187;28;20211;-51
2022/05/16 04:17:56;;;;;;;4.13;3.17;;;;;;;15.24;100.00;96719.28;5056573;28;20203;-50
2022/05/16 04:20:23;;;;;;;2.50;2.40;;;;;;;15.29;100.00;96716.09;5056905;28;20211;-51
2022/05/16 04:22:50;;;;;;;3.37;2.47;;;;;;;15.32;100.00;96708.59;5056775;28;20595;-50
2022/05/16 04:25:19;;;;;;;3.60;2.40;;;;;;;15.38;100.00;96712.41;5056624;28;20237;-51
2022/05/16 04:27:52;;;;;;;3.07;2.57;;;;;;;15.49;100.00;96717.41;5056800;28;20218;-50
2022/05/16 04:30:19;;;;;;;3.53;2.20;;;;;;;15.54;100.00;96716.91;5056556;28;20207;-51
2022/05/16 04:32:45;;;;;;;2.95;2.45;;;;;;;15.60;100.00;96719.72;5057184;28;20586;-51
2022/05/16 04:35:13;;;;;;;4.03;2.30;;;;;;;15.60;100.00;96722.38;5057055;28;20227;-50
2022/05/16 04:37:40;;;;;;;2.50;2.30;;;;;;;15.60;100.00;96722.38;5057101;28;20222;-50
2022/05/16 04:40:10;;;;;;;3.03;2.65;;;;;;;15.65;100.00;96736.03;5055456;28;20636;-50
2022/05/16 04:42:43;;;;;;;4.07;3.63;;;;;;;15.94;100.00;96732.75;5057187;28;20207;-51
2022/05/16 04:45:20;;;;;;;3.47;2.92;;;;;;;16.40;100.00;96734.47;5056179;28;20195;-50
2022/05/16 04:47:48;;;;;;;2.33;2.13;;;;;;;16.56;100.00;96732.72;5056456;28;20260;-49
2022/05/16 04:50:18;;;;;;;2.60;2.38;;;;;;;16.68;100.00;96734.81;5056532;28;20583;-51
2022/05/16 04:52:45;;;;;;;2.80;2.60;;;;;;;16.80;100.00;96738.72;5056906;28;20218;-51
2022/05/16 04:55:12;;;;;;;4.20;2.45;;;;;;;16.85;100.00;96739.03;5056653;28;20227;-51
2022/05/16 04:57:41;;;;;;;2.83;2.63;;;;;;;16.89;100.00;96747.50;5048598;28;20203;-50
2022/05/16 05:00:10;;;;;;;2.47;2.28;;;;;;;17.06;100.00;96737.50;5056978;28;20218;-50
2022/05/16 05:02:40;;;;;;;2.95;2.72;;;;;;;17.38;100.00;96753.22;5055980;28;20207;-51
2022/05/16 05:05:09;;;;;;;2.90;2.70;;;;;;;17.53;100.00;96754.09;5056808;28;20222;-50
2022/05/16 05:07:37;;;;;;;3.58;2.53;;;;;;;17.53;99.98;96756.75;5056486;28;20277;-50
2022/05/16 05:15:36;;;;;;;3.30;2.83;;;;;;;17.36;99.06;96771.28;5052978;28;20276;-50
2022/05/16 05:18:04;;;;;;;5.32;3.60;;;;;;;17.30;99.07;96769.34;5054345;28;20243;-50
2022/05/16 05:20:33;;;;;;;4.22;3.00;;;;;;;17.26;100.00;96779.56;5075071;28;20203;-51
2022/05/16 05:23:01;;;;;;;4.88;3.22;;;;;;;17.24;100.00;96778.09;5045472;28;20224;-51
2022/05/16 05:25:28;;;;;;;3.15;2.95;;;;;;;17.21;100.00;96773.09;5055174;28;20239;-50
2022/05/16 05:27:55;;;;;;;3.53;3.22;;;;;;;17.25;100.00;96783.22;5070927;28;20195;-51
2022/05/16 05:30:24;;;;;;;3.58;3.28;;;;;;;17.28;100.00;96771.38;5076483;28;20245;-50
2022/05/16 05:32:50;;;;;;;3.67;3.20;;;;;;;17.31;100.00;96779.84;5057171;28;20612;-51
2022/05/16 05:35:21;;;;;;;3.40;3.20;;;;;;;17.47;100.00;96776.19;5044193;28;20276;-51
2022/05/16 05:37:49;;;;;;;3.13;2.53;;;;;;;17.70;99.64;96781.50;5056954;28;20214;-50
2022/05/16 05:40:16;;;;;;;7.13;6.43;;;;;;;18.15;96.83;96777.78;5056345;28;20230;-50
2022/05/16 05:42:42;;;;;;;6.47;4.78;;;;;;;18.70;93.46;96780.75;5072030;28;20214;-51
2022/05/16 05:45:10;;;;;;;2.60;2.40;;;;;;;19.16;87.29;96783.88;5077864;28;20231;-50
2022/05/16 05:47:37;;;;;;;2.40;2.20;;;;;;;19.50;78.86;96788.50;5064558;28;20207;-50
2022/05/16 05:50:05;;;;;;;2.10;1.98;;;;;;;19.84;78.58;96796.56;5076424;28;20203;-50
2022/05/16 05:52:33;;;;;;;4.72;1.77;;;;;;;20.16;72.63;96800.47;5077667;28;20203;-49
2022/05/16 05:55:00;;;;;;;3.35;2.20;;;;;;;20.33;73.92;96807.19;5073461;28;20207;-50
2022/05/16 05:57:26;;;;;;;2.20;2.00;;;;;;;20.61;73.76;96807.13;5072272;28;20223;-50
2022/05/16 05:59:53;;;;;;;2.38;2.22;;;;;;;20.73;71.54;96813.53;5065440;28;20191;-52
2022/05/16 06:02:19;;;;;;;1.90;1.80;;;;;;;20.85;70.47;96811.94;5077303;28;20186;-51
2022/05/16 06:04:46;;;;;;;2.20;1.95;;;;;;;20.95;74.26;96827.69;5076148;28;20229;-50
2022/05/16 06:07:14;;;;;;;4.07;2.03;;;;;;;20.91;76.01;96825.59;5076595;28;20210;-51
2022/05/16 06:09:45;;;;;;;2.90;2.10;;;;;;;20.99;73.14;96828.09;5075460;28;20207;-49
2022/05/16 06:12:11;;;;;;;2.72;1.67;;;;;;;20.92;69.42;96829.94;5052377;28;20627;-51
2022/05/16 06:14:38;;;;;;;2.38;1.83;;;;;;;20.73;70.47;96845.81;5044139;28;20199;-51
2022/05/16 06:17:05;;;;;;;1.63;1.50;;;;;;;20.72;69.16;96841.47;5055136;28;20231;-50
2022/05/16 06:19:36;;;;;;;3.95;2.40;;;;;;;20.55;70.60;96833.94;5054945;28;20245;-51
2022/05/16 06:22:03;;;;;;;2.17;2.08;;;;;;;20.61;70.67;96842.06;5055393;28;20294;-51
2022/05/16 06:27:18;;;;;;;1.90;1.80;;;;;;;20.63;73.87;96842.66;5054958;28;20194;-52
2022/05/16 06:29:44;;;;;;;2.00;1.90;;;;;;;20.92;73.96;96838.84;5054032;28;20285;-51
2022/05/16 06:32:11;;;;;;;2.38;2.00;;;;;;;21.52;71.39;96851.38;5056315;28;20562;-50
2022/05/16 06:34:37;;;;;;;2.47;2.00;;;;;;;21.93;66.90;96853.06;5054800;28;20203;-51
2022/05/16 06:37:05;;;;;;;3.35;1.98;;;;;;;22.40;63.15;96860.84;5054780;28;20741;-52
2022/05/16 06:39:32;;;;;;;2.13;1.92;;;;;;;22.96;61.66;96858.34;5055276;28;20207;-51
2022/05/16 06:41:59;;;;;;;3.70;2.58;;;;;;;23.47;57.02;96862.88;5054897;28;20252;-50
2022/05/16 06:44:28;;;;;;;148.30;36.97;;;;;;;23.26;57.23;96866.72;5054707;28;20203;-50
2022/05/16 06:46:56;;;;;;;432.00;108.85;;;;;;;23.12;61.25;96870.53;5055290;28;20199;-50
2022/05/16 06:49:23;;;;;;;10.82;4.45;;;;;;;22.97;58.31;96880.78;5055215;28;20249;-52
2022/05/16 06:51:49;;;;;;;46.90;20.15;;;;;;;22.80;61.45;96883.97;5055556;28;20203;-51
2022/05/16 06:54:16;;;;;;;8.50;5.88;;;;;;;22.91;62.62;96887.03;5055296;28;20293;-51
2022/05/16 06:56:44;;;;;;;16.23;8.57;;;;;;;23.36;61.57;96891.34;5055209;28;20227;-51
2022/05/16 06:59:10;;;;;;;2.90;2.70;;;;;;;23.07;60.56;96889.22;5055475;28;20203;-50
2022/05/16 07:01:41;;;;;;;2.50;2.30;;;;;;;22.95;59.73;96896.34;5055433;28;20691;-50
2022/05/16 07:04:08;;;;;;;3.15;2.50;;;;;;;22.83;65.40;96900.75;5055025;28;20203;-50
2022/05/16 07:06:36;;;;;;;2.65;2.13;;;;;;;22.86;62.54;96903.00;5055744;28;20207;-50
2022/05/16 07:09:06;;;;;;;2.30;2.20;;;;;;;22.49;64.75;96902.72;5058848;28;20556;-51
2022/05/16 07:11:35;;;;;;;4.65;2.28;;;;;;;22.25;63.32;96901.50;5058339;28;20195;-51
2022/05/16 07:14:01;;;;;;;2.70;2.20;;;;;;;22.05;62.47;96905.25;5058689;28;20220;-51
2022/05/16 07:16:28;;;;;;;3.03;2.30;;;;;;;22.02;66.87;96908.38;5058890;28;20238;-51
2022/05/16 07:18:59;;;;;;;2.58;2.22;;;;;;;21.90;64.00;96902.75;5058543;28;20639;-50
2022/05/16 07:21:26;;;;;;;2.85;2.50;;;;;;;21.69;68.54;96906.47;5058620;28;20750;-50
2022/05/16 07:23:54;;;;;;;3.10;2.10;;;;;;;21.49;68.16;96900.22;5058588;28;20227;-51
2022/05/16 07:29:06;;;;;;;2.50;2.30;;;;;;;21.50;68.43;96911.84;5046466;28;20538;-50
2022/05/16 07:31:33;;;;;;;3.50;2.72;;;;;;;21.44;71.90;96901.88;5058449;28;20195;-51
2022/05/16 07:34:02;;;;;;;2.58;2.38;;;;;;;21.33;72.63;96911.38;5057885;28;20233;-50
2022/05/16 07:36:28;;;;;;;3.35;2.38;;;;;;;21.37;76.36;96903.72;5058138;28;20238;-50
2022/05/16 07:38:55;;;;;;;2.78;2.47;;;;;;;21.61;73.75;96909.34;5058417;28;20203;-51
2022/05/16 07:41:21;;;;;;;6.25;3.05;;;;;;;21.74;66.46;96909.38;5056611;28;20217;-50
2022/05/16 07:43:48;;;;;;;4.05;2.78;;;;;;;21.90;67.70;96909.97;5057325;28;20207;-50
2022/05/16 07:46:15;;;;;;;3.20;2.90;;;;;;;22.02;66.74;96911.88;5057798;28;20627;-50
2022/05/16 07:48:43;;;;;;;4.00;3.70;;;;;;;22.08;69.15;96921.00;5057954;28;20569;-50
2022/05/16 07:51:11;;;;;;;3.53;3.22;;;;;;;22.44;67.42;96915.97;5058048;28;20242;-50
2022/05/16 07:53:38;;;;;;;3.55;2.80;;;;;;;22.94;59.36;96921.66;5057888;28;20242;-52
2022/05/16 07:56:06;;;;;;;3.00;2.70;;;;;;;23.44;61.84;96928.91;5057501;28;20227;-51
2022/05/16 07:58:34;;;;;;;4.40;3.05;;;;;;;23.86;56.63;96921.16;5058029;28;20241;-51
2022/05/16 08:01:00;;;;;;;4.43;4.00;;;;;;;24.32;57.59;96910.81;5057972;28;20203;-51
2022/05/16 08:03:29;;;;;;;4.88;3.17;;;;;;;24.41;53.11;96912.16;5057964;28;20274;-51
2022/05/16 08:05:55;;;;;;;5.20;3.30;;;;;;;24.68;54.54;96921.69;5057717;28;20206;-51
2022/05/16 08:11:11;;;;;;;3.38;2.75;;;;;;;25.40;51.50;96919.16;5044968;28;20262;-51
2022/05/16 08:13:39;;;;;;;3.25;2.80;;;;;;;25.44;50.32;96925.75;5060300;28;20215;-51
2022/05/16 08:16:06;;;;;;;4.47;3.00;;;;;;;25.61;48.59;96922.19;5071937;28;20647;-52
2022/05/16 08:18:34;;;;;;;2.97;2.60;;;;;;;25.65;49.75;96928.78;5062270;28;20214;-51
2022/05/16 08:21:00;;;;;;;5.50;2.88;;;;;;;25.53;49.23;96919.81;5058134;28;20532;-51
2022/05/16 08:23:30;;;;;;;5.28;3.30;;;;;;;25.57;49.41;96926.44;5057539;28;20211;-51
2022/05/16 08:26:01;;;;;;;5.63;3.22;;;;;;;25.80;48.72;96927.53;5057552;28;20214;-50
2022/05/16 08:28:28;;;;;;;5.10;3.20;;;;;;;26.00;49.66;96933.50;5057511;28;20196;-51
2022/05/16 08:30:54;;;;;;;2.92;2.72;;;;;;;25.89;48.73;96934.28;5057180;28;20214;-52
2022/05/16 08:33:21;;;;;;;4.53;3.10;;;;;;;26.01;47.16;96927.00;5057369;28;20211;-51
2022/05/16 08:39:52;;;;;;;4.05;2.80;;;;;;;25.91;48.52;96930.28;5056989;28;20214;-51
2022/05/16 08:41:23;;;;;;;3.40;3.10;;;;;;;26.25;49.73;96949.59;5056727;28;20544;-51
2022/05/16 08:43:53;;;;;;;5.72;2.92;;;;;;;26.49;46.92;96940.41;5057108;28;20207;-50
2022/05/16 08:46:35;;;;;;;4.82;3.13;;;;;;;26.58;47.33;96950.66;5056958;28;20222;-51
2022/05/16 08:49:15;;;;;;;3.15;2.85;;;;;;;26.44;49.81;96953.84;5056123;28;20206;-51
2022/05/16 08:51:44;;;;;;;7.03;3.20;;;;;;;26.63;48.87;96952.66;5045374;28;20206;-52
2022/05/16 08:54:16;;;;;;;4.40;2.97;;;;;;;26.52;48.58;96951.63;5054815;28;20741;-51
2022/05/16 08:56:45;;;;;;;3.50;3.13;;;;;;;26.48;47.17;96946.88;5056659;28;20225;-50
2022/05/16 08:59:16;;;;;;;4.03;3.25;;;;;;;26.09;48.03;96940.22;5056857;28;20210;-52
2022/05/16 09:01:51;;;;;;;5.32;3.40;;;;;;;25.96;48.98;96948.56;5056713;28;20211;-51
2022/05/16 09:04:21;;;;;;;3.58;3.30;;;;;;;26.42;48.50;96950.53;5056957;28;20253;-51
2022/05/16 09:06:56;;;;;;;3.40;3.00;;;;;;;26.68;47.46;96939.19;5057730;28;20199;-51
2022/05/16 09:09:28;;;;;;;3.35;3.05;;;;;;;26.63;47.81;96942.66;5056696;28;20205;-50
2022/05/16 09:12:04;;;;;;;3.45;3.15;;;;;;;26.42;45.56;96945.94;5056237;28;20623;-49
2022/05/16 09:14:39;;;;;;;4.85;3.40;;;;;;;26.85;45.15;96950.22;5057028;28;20627;-51
2022/05/16 09:17:15;;;;;;;3.55;3.25;;;;;;;26.68;48.26;96940.03;5058110;28;20210;-51
2022/05/16 09:19:59;;;;;;;6.30;4.90;;;;;;;26.73;46.55;96942.03;5056279;28;20201;-50
2022/05/16 09:22:32;;;;;;;4.78;3.78;;;;;;;27.03;46.90;96934.56;5044126;28;20537;-52
2022/05/16 09:25:04;;;;;;;3.30;3.10;;;;;;;27.11;45.88;96936.09;5056094;28;20238;-51
2022/05/16 09:30:20;;;;;;;3.88;3.47;;;;;;;27.48;45.86;96933.91;5055079;28;20210;-51
2022/05/16 09:32:50;;;;;;;6.53;3.60;;;;;;;27.78;46.05;96934.44;5056085;28;20628;-51
2022/05/16 09:35:31;;;;;;;4.47;3.28;;;;;;;27.50;45.73;96943.44;5056063;28;20207;-53
2022/05/16 09:37:58;;;;;;;4.30;3.30;;;;;;;27.32;47.45;96946.31;5055661;28;20250;-51
2022/05/16 09:40:33;;;;;;;4.68;3.30;;;;;;;27.03;47.10;96931.88;5055934;28;20693;-51
2022/05/16 09:43:05;;;;;;;8.88;3.45;;;;;;;27.38;48.91;96934.50;5060194;28;20221;-51
2022/05/16 09:45:32;;;;;;;3.30;3.00;;;;;;;27.56;49.20;96926.16;5061778;28;20198;-51
2022/05/16 09:47:58;;;;;;;5.57;3.40;;;;;;;27.56;45.67;96931.59;5060414;28;20203;-51
2022/05/16 09:50:27;;;;;;;4.22;3.42;;;;;;;27.42;44.99;96924.78;5060462;28;20222;-51
2022/05/16 09:53:13;;;;;;;5.78;3.50;;;;;;;27.35;48.92;96934.97;5059995;28;20215;-52
2022/05/16 09:55:53;;;;;;;8.20;4.20;;;;;;;27.50;48.52;96932.56;5060336;28;20203;-51
2022/05/16 09:58:22;;;;;;;5.68;4.38;;;;;;;27.71;48.38;96922.91;5062276;28;20595;-51
2022/05/16 10:00:54;;;;;;;4.22;3.10;;;;;;;27.75;48.44;96931.41;5061438;28;20218;-50
2022/05/16 10:03:24;;;;;;;7.18;3.40;;;;;;;27.96;45.89;96936.13;5058974;28;20503;-52
2022/05/16 10:05:53;;;;;;;3.42;3.10;;;;;;;27.90;43.94;96918.09;5057905;28;20195;-51
2022/05/16 10:08:30;;;;;;;5.53;3.38;;;;;;;28.05;45.38;96921.06;5055500;28;20221;-50
2022/05/16 10:11:06;;;;;;;4.88;2.80;;;;;;;28.15;45.57;96919.38;5056402;28;20570;-52
2022/05/16 10:13:33;;;;;;;4.18;3.13;;;;;;;28.41;46.30;96912.41;5049044;28;20195;-51
2022/05/16 10:16:02;;;;;;;3.58;3.10;;;;;;;28.32;45.52;96908.47;5042043;28;20198;-52
2022/05/16 10:18:29;;;;;;;5.85;3.20;;;;;;;28.38;45.42;96912.91;5054876;28;20234;-51
2022/05/16 10:20:59;;;;;;;4.13;2.80;;;;;;;28.28;44.10;96901.06;5055443;28;20285;-52
2022/05/16 10:23:29;;;;;;;6.90;3.33;;;;;;;28.45;44.34;96902.69;5055509;28;20203;-51
2022/05/16 10:26:00;;;;;;;4.22;3.15;;;;;;;28.50;46.47;96900.03;5056233;28;20518;-52
2022/05/16 10:28:32;;;;;;;4.05;3.17;;;;;;;28.41;45.05;96906.97;5057078;28;20196;-51
2022/05/16 10:33:45;;;;;;;4.30;3.17;;;;;;;28.25;41.43;96902.38;5061982;28;20249;-52
2022/05/16 10:36:17;;;;;;;7.03;3.85;;;;;;;27.93;45.72;96904.81;5070031;28;20210;-52
2022/05/16 10:38:52;;;;;;;3.13;2.85;;;;;;;28.03;46.23;96906.88;5059525;28;20659;-52
2022/05/16 10:41:26;;;;;;;4.38;3.28;;;;;;;28.08;44.87;96904.28;5072824;28;20239;-51
2022/05/16 10:44:00;;;;;;;6.15;3.08;;;;;;;27.75;43.09;96901.50;5067282;28;20175;-52
2022/05/16 10:46:28;;;;;;;5.50;2.80;;;;;;;27.36;43.56;96898.59;5071472;28;20213;-51
2022/05/16 10:49:00;;;;;;;5.28;2.67;;;;;;;27.41;45.63;96904.13;5066859;28;20222;-51
2022/05/16 10:51:31;;;;;;;3.50;3.20;;;;;;;26.80;47.70;96903.91;5066150;28;20207;-51
2022/05/16 10:54:06;;;;;;;5.40;3.17;;;;;;;27.03;46.06;96909.34;5064392;28;20721;-51
2022/05/16 10:57:17;;;;;;;4.25;2.90;;;;;;;27.26;45.19;96906.53;5052685;28;20213;-51
2022/05/16 10:59:55;;;;;;;3.65;3.17;;;;;;;27.82;47.23;96903.00;5004624;28;20311;-53
2022/05/16 11:02:30;;;;;;;4.05;3.10;;;;;;;27.76;43.83;96905.88;5045795;28;20207;-50
2022/05/16 11:05:08;;;;;;;3.30;2.72;;;;;;;27.70;41.56;96897.63;5055040;28;20557;-52
2022/05/16 11:07:39;;;;;;;4.38;3.45;;;;;;;27.76;44.88;96900.44;5054962;28;20195;-51
2022/05/16 11:10:09;;;;;;;3.92;3.33;;;;;;;28.29;42.20;96897.28;5054157;28;20203;-51
2022/05/16 11:12:44;;;;;;;6.30;3.65;;;;;;;28.02;42.36;96903.34;5054893;28;20210;-51
2022/05/16 11:15:20;;;;;;;7.97;3.13;;;;;;;27.83;42.82;96899.22;5054377;28;20636;-51
2022/05/16 11:17:52;;;;;;;6.28;3.88;;;;;;;28.13;41.48;96891.59;5054573;28;20211;-51
2022/05/16 11:20:22;;;;;;;5.70;4.18;;;;;;;28.07;43.16;96895.31;5055006;28;20203;-50
2022/05/16 11:22:52;;;;;;;3.65;3.20;;;;;;;28.05;43.70;96893.88;5055380;28;20659;-51
2022/05/16 11:25:23;;;;;;;5.05;2.97;;;;;;;27.89;43.80;96895.50;5058424;28;20235;-51
2022/05/16 11:28:00;;;;;;;4.85;3.20;;;;;;;27.82;43.95;96892.13;5059902;28;20555;-52
2022/05/16 11:30:38;;;;;;;4.05;2.97;;;;;;;27.35;41.95;96890.69;5058827;28;20596;-51
2022/05/16 11:33:21;;;;;;;3.60;3.30;;;;;;;26.80;45.43;96893.06;5054920;28;20257;-50
2022/05/16 11:35:48;;;;;;;5.35;3.38;;;;;;;26.66;45.64;96898.75;5055019;28;20234;-51
2022/05/16 11:38:33;;;;;;;5.78;3.45;;;;;;;26.40;46.16;96887.56;5054342;28;20227;-51
2022/05/16 11:41:08;;;;;;;4.22;3.38;;;;;;;26.30;44.90;96892.75;5054743;28;20282;-51
2022/05/16 11:43:40;;;;;;;4.90;3.20;;;;;;;26.01;44.47;96895.31;5054248;28;20533;-51
2022/05/16 11:46:22;;;;;;;4.82;3.08;;;;;;;25.91;43.71;96880.69;5054578;28;20219;-51
2022/05/16 11:49:13;;;;;;;6.80;3.00;;;;;;;25.67;42.74;96877.94;5054785;28;20191;-50
2022/05/16 11:51:54;;;;;;;3.88;2.97;;;;;;;25.57;45.31;96876.84;5054551;28;20283;-50
2022/05/16 11:54:26;;;;;;;5.13;3.42;;;;;;;25.56;44.36;96875.19;5055927;28;20291;-51
2022/05/16 12:02:39;;;;;;;6.60;3.17;;;;;;;25.45;46.33;96876.78;5057708;28;20210;-51
2022/05/16 12:05:11;;;;;;;4.10;3.30;;;;;;;25.48;45.54;96873.59;5057668;28;20643;-50
2022/05/16 12:07:41;;;;;;;5.93;3.33;;;;;;;25.33;45.02;96875.91;5057837;28;20542;-51
2022/05/16 12:10:23;;;;;;;4.78;2.92;;;;;;;25.41;44.48;96872.88;5057728;28;20282;-50
2022/05/16 12:13:16;;;;;;;3.80;3.03;;;;;;;25.37;46.00;96877.09;5045400;28;20279;-51
2022/05/16 12:15:44;;;;;;;4.47;3.38;;;;;;;25.58;45.05;96887.44;5057375;28;20203;-51
2022/05/16 12:18:32;;;;;;;3.85;2.70;;;;;;;25.76;43.49;96881.13;5057410;28;20249;-51
2022/05/16 12:21:08;;;;;;;4.78;2.90;;;;;;;25.85;41.82;96884.31;5045805;28;20211;-50